Ana Sayfa
METAR-TAF:

METAR-TAF

Havaalanları :

Çita, Rusya

Kadala Havalimanı

Enlem: 52-05N, Boylam: 113-29E, yükseklik: 685 m

Güncel hava durumu gözlemi

Rapor saat 15:00 UTC de 4 saat ve 13 dakika önce yapıldı.
Rüzgar batı/güneybatıdan 6 kt
Sıcaklık -12°C
Nem 61%
Basınç 1013 hPa
Görüş mesafesi 10 km veya daha fazla

METAR: UIAA 201500Z 24003MPS 9999 NSC M12/M18 Q1013 R29/018165 NOSIG RMK QFE702/0936

Saat: 04:13 (19:13 UTC)

Tahmin

Rapor saat 14:00 UTC de 5 saat ve 13 dakika önce yapıldı.
Ayın 20'si saat 15 UTC'den ayın 21'si saat 15 UTC'ye kadar geçerli Tahmin
Rüzgar batıdan 6 kt ve 17 kt'a kadar ani rüzgarlar
Görüş mesafesi 10 km veya daha fazla

TAF: UIAA 201400Z 2015/2115 26003G09MPS 9999 NSC

4.000'den fazla havaalanı için hava durumu gözlemleri ve tahminleri (METAR ve TAF raporları).

Kullanılabilir istasyonlar harita üzerinde sarı ve kırmızı noktalarla gösterilir.

İstasyonun adını görmek için fareyi noktanın üzerinde gezdirin.

Sonrasında hava gözlem ve tahminlerini görmek için tıklayın.

Haritayı değiştirmek için: yaklaştırmak için siyah artı işaretli yeşil düğmeye ve uzaklaştırmak için de eksi işaretli düğmeye hızla tıklayın; bitişik haritalar için yeşil okları kullanın.


METAR-TAF: